Time;durP1;ratioP1;P1;durP2;ratioP2;P2;SDS_P1;SDS_P2;PMS_P1;PMS_P2;Temp;Humidity;BMP_temperature;BMP_pressure;BME280_temperature;BME280_humidity;BME280_pressure;Samples;Min_cycle;Max_cycle;Signal;HPM_P1;HPM_P2
2023/08/24 00:01:55;;;;;;;3.50;2.53;;;;;;;17.99;93.13;101122.41;5031065;28;20042;-84
2023/08/24 00:04:22;;;;;;;2.97;2.65;;;;;;;17.99;93.13;101117.13;5015845;28;20076;-85
2023/08/24 00:06:49;;;;;;;2.15;1.95;;;;;;;17.98;93.27;101124.22;5055120;28;20518;-84
2023/08/24 00:09:17;;;;;;;2.78;2.55;;;;;;;17.95;93.78;101120.78;5036387;28;20476;-88
2023/08/24 00:11:43;;;;;;;3.17;2.88;;;;;;;17.91;93.72;101124.44;5017420;28;20069;-84
2023/08/24 00:14:10;;;;;;;2.55;2.42;;;;;;;17.88;93.69;101125.41;5037734;28;20124;-84
2023/08/24 00:16:38;;;;;;;2.25;1.73;;;;;;;17.84;93.75;101126.41;5016390;28;20098;-85
2023/08/24 00:19:05;;;;;;;4.47;2.20;;;;;;;17.83;94.21;101135.28;5023447;28;20049;-85
2023/08/24 00:21:31;;;;;;;3.30;2.55;;;;;;;17.79;94.27;101125.69;5044115;28;20121;-84
2023/08/24 00:23:59;;;;;;;5.53;2.70;;;;;;;17.75;94.27;101126.72;5038945;28;20040;-84
2023/08/24 00:26:26;;;;;;;2.35;1.85;;;;;;;17.69;94.47;101127.75;5036960;28;20159;-84
2023/08/24 00:28:53;;;;;;;3.38;1.77;;;;;;;17.65;94.80;101127.00;5038380;28;20067;-85
2023/08/24 00:31:20;;;;;;;5.38;2.33;;;;;;;17.60;94.75;101131.56;5038354;28;20040;-83
2023/08/24 00:33:46;;;;;;;3.60;2.53;;;;;;;17.53;95.01;101124.72;5032697;28;20076;-84
2023/08/24 00:36:13;;;;;;;3.25;2.08;;;;;;;17.49;95.41;101126.56;5040280;28;20041;-84
2023/08/24 00:38:40;;;;;;;4.88;2.42;;;;;;;17.44;95.67;101125.00;5042147;28;20049;-84
2023/08/24 00:41:06;;;;;;;6.22;2.15;;;;;;;17.40;95.58;101126.00;5039226;28;20037;-83
2023/08/24 00:43:33;;;;;;;2.85;2.63;;;;;;;17.34;96.00;101116.47;5032774;28;20068;-90
2023/08/24 00:46:03;;;;;;;2.65;2.45;;;;;;;17.28;95.88;101120.16;5031900;28;20550;-86
2023/08/24 00:48:30;;;;;;;3.40;2.50;;;;;;;17.24;96.00;101112.38;5031472;28;20037;-89
2023/08/24 00:51:00;;;;;;;2.35;2.15;;;;;;;17.19;96.39;101113.38;5032663;28;21707;-84
2023/08/24 00:53:29;;;;;;;2.13;1.90;;;;;;;17.14;96.54;101117.03;5027347;28;20109;-91
2023/08/24 00:55:56;;;;;;;2.90;2.00;;;;;;;17.13;97.14;101113.53;5042317;28;20053;-84
2023/08/24 00:58:24;;;;;;;3.25;2.22;;;;;;;17.10;96.98;101112.75;5037211;28;20045;-91
2023/08/24 01:00:53;;;;;;;3.00;2.70;;;;;;;17.07;97.17;101112.84;5030875;28;20715;-83
2023/08/24 01:03:23;;;;;;;3.33;1.98;;;;;;;17.00;97.36;101107.75;5035987;28;20122;-84
2023/08/24 01:05:50;;;;;;;3.63;2.30;;;;;;;16.95;97.44;101114.94;5029016;28;20037;-85
2023/08/24 01:08:17;;;;;;;2.72;1.70;;;;;;;16.90;97.98;101116.84;5034843;28;20064;-94
2023/08/24 01:11:02;;;;;;;1.98;1.88;;;;;;;16.85;98.77;101113.41;5035708;28;20062;-84
2023/08/24 01:13:46;;;;;;;3.28;2.60;;;;;;;16.83;99.02;101113.47;5036191;28;20049;-88
2023/08/24 01:16:20;;;;;;;2.30;2.10;;;;;;;16.79;98.89;101106.53;5013771;28;20408;-83
2023/08/24 01:18:48;;;;;;;4.70;3.50;;;;;;;16.75;99.36;101098.72;5033712;28;20045;-85
2023/08/24 01:21:18;;;;;;;3.13;1.98;;;;;;;16.71;99.35;101111.16;5029738;28;20067;-84
2023/08/24 01:24:12;;;;;;;5.55;2.92;;;;;;;16.67;99.94;101110.38;5046389;28;20048;-84
2023/08/24 01:26:41;;;;;;;5.10;2.60;;;;;;;16.62;100.00;101107.00;5056510;28;20049;-85
2023/08/24 01:29:08;;;;;;;4.20;2.30;;;;;;;16.61;100.00;101117.59;5037240;28;20128;-86
2023/08/24 01:31:34;;;;;;;2.67;2.40;;;;;;;16.59;100.00;101112.34;5032583;28;20124;-84
2023/08/24 01:34:01;;;;;;;6.03;3.00;;;;;;;16.54;100.00;101109.84;5033455;28;20112;-83
2023/08/24 01:36:28;;;;;;;3.85;2.67;;;;;;;16.50;100.00;101105.56;5031511;28;20440;-84
2023/08/24 01:39:22;;;;;;;3.10;2.80;;;;;;;16.49;100.00;101100.28;5011841;28;20058;-86
2023/08/24 01:41:53;;;;;;;3.88;2.20;;;;;;;16.43;100.00;101101.31;5055546;28;20493;-84
2023/08/24 01:44:22;;;;;;;4.32;2.47;;;;;;;16.40;100.00;101104.06;5024541;28;20127;-83
2023/08/24 01:46:52;;;;;;;2.95;2.70;;;;;;;16.40;100.00;101096.13;5036531;28;20071;-86
2023/08/24 01:49:23;;;;;;;4.05;3.10;;;;;;;16.38;100.00;101095.28;5034563;28;20519;-92
2023/08/24 01:51:51;;;;;;;3.20;2.65;;;;;;;16.34;100.00;101098.94;5026962;28;20049;-84
2023/08/24 01:54:18;;;;;;;3.63;3.33;;;;;;;16.30;100.00;101094.63;5014162;28;20086;-85
2023/08/24 01:56:45;;;;;;;2.72;2.53;;;;;;;16.29;100.00;101098.19;5016535;28;20053;-88
2023/08/24 01:59:11;;;;;;;3.35;3.05;;;;;;;16.27;100.00;101107.91;5019661;28;20049;-84
2023/08/24 02:01:38;;;;;;;5.70;2.60;;;;;;;16.24;100.00;101102.72;5028214;28;20037;-85
2023/08/24 02:04:05;;;;;;;4.90;2.60;;;;;;;16.23;100.00;101104.50;5032962;28;20847;-87
2023/08/24 02:06:32;;;;;;;3.85;2.65;;;;;;;16.19;100.00;101098.41;5039018;28;20056;-84
2023/08/24 02:08:58;;;;;;;4.28;3.20;;;;;;;16.15;100.00;101107.31;5033803;28;20079;-84
2023/08/24 02:11:25;;;;;;;4.40;2.80;;;;;;;16.10;100.00;101101.28;5018522;28;20064;-87
2023/08/24 02:13:51;;;;;;;6.90;2.75;;;;;;;16.07;100.00;101095.22;5031947;28;20112;-88
2023/08/24 02:16:18;;;;;;;2.90;2.67;;;;;;;16.06;100.00;101097.00;5029772;28;20038;-84
2023/08/24 02:18:47;;;;;;;3.22;2.20;;;;;;;16.05;100.00;101097.88;5033468;28;20049;-93
2023/08/24 02:21:15;;;;;;;2.55;2.22;;;;;;;16.00;100.00;101094.50;5026846;28;20070;-84
2023/08/24 02:23:42;;;;;;;3.10;2.90;;;;;;;15.96;100.00;101083.13;5029906;28;20148;-84
2023/08/24 02:26:09;;;;;;;3.50;2.75;;;;;;;15.91;100.00;101078.88;5024596;28;20132;-85
2023/08/24 02:28:38;;;;;;;4.68;3.28;;;;;;;15.88;100.00;101078.03;5037853;28;20053;-89
2023/08/24 02:31:06;;;;;;;5.85;3.97;;;;;;;15.87;100.00;101086.84;5053413;28;20057;-86
2023/08/24 02:33:37;;;;;;;12.90;4.00;;;;;;;15.86;100.00;101086.91;5035798;28;20119;-92
2023/08/24 02:36:04;;;;;;;3.22;2.97;;;;;;;15.83;100.00;101076.44;5033733;28;20128;-87
2023/08/24 02:38:31;;;;;;;3.78;3.28;;;;;;;15.79;100.00;101082.66;5014734;28;20389;-89
2023/08/24 02:41:05;;;;;;;3.85;3.40;;;;;;;15.77;100.00;101077.38;5048905;28;20036;-87
2023/08/24 02:43:32;;;;;;;5.07;3.70;;;;;;;15.75;100.00;101075.69;5036360;28;20101;-88
2023/08/24 02:46:09;;;;;;;6.75;3.67;;;;;;;15.74;100.00;101076.63;5034750;28;20041;-85
2023/08/24 02:48:36;;;;;;;5.40;3.72;;;;;;;15.71;100.00;101061.72;5016471;28;20063;-86
2023/08/24 02:51:05;;;;;;;3.38;3.08;;;;;;;15.72;100.00;101058.16;5016959;28;20041;-85
2023/08/24 02:53:34;;;;;;;4.40;3.08;;;;;;;15.73;100.00;101065.16;5026578;28;20040;-88
2023/08/24 02:56:01;;;;;;;3.97;3.40;;;;;;;15.71;100.00;101059.06;5049146;28;20404;-84
2023/08/24 02:58:29;;;;;;;4.30;3.67;;;;;;;15.72;100.00;101052.88;5032578;28;20065;-84
2023/08/24 03:00:56;;;;;;;5.07;4.32;;;;;;;15.75;100.00;101057.22;5033697;28;20124;-84
2023/08/24 03:03:25;;;;;;;4.47;3.45;;;;;;;15.76;100.00;101051.91;5011095;28;20457;-84
2023/08/24 03:06:14;;;;;;;4.10;3.00;;;;;;;15.78;100.00;101050.09;5030410;28;20133;-85
2023/08/24 03:08:41;;;;;;;4.78;3.40;;;;;;;15.79;100.00;101050.97;5044899;28;20932;-84
2023/08/24 03:11:08;;;;;;;4.90;3.20;;;;;;;15.79;100.00;101046.56;5014750;28;20588;-85
2023/08/24 03:13:38;;;;;;;3.67;3.20;;;;;;;15.82;100.00;101035.94;5024459;28;20044;-86
2023/08/24 03:16:07;;;;;;;9.75;3.28;;;;;;;15.79;100.00;101043.91;5036611;28;20135;-85
2023/08/24 03:18:34;;;;;;;6.03;3.13;;;;;;;15.79;100.00;101043.91;5029434;28;20041;-85
2023/08/24 03:21:01;;;;;;;5.63;3.05;;;;;;;15.80;100.00;101050.06;5035582;28;20041;-84
2023/08/24 03:23:28;;;;;;;5.22;3.70;;;;;;;15.78;100.00;101054.50;5028153;28;20508;-85
2023/08/24 03:25:56;;;;;;;3.22;2.95;;;;;;;15.75;100.00;101052.81;5043524;28;20101;-89
2023/08/24 03:28:23;;;;;;;4.78;3.33;;;;;;;15.73;100.00;101054.63;5035254;28;20037;-85
2023/08/24 03:30:54;;;;;;;4.22;4.00;;;;;;;15.68;100.00;101056.50;5022824;28;20354;-85
2023/08/24 03:33:21;;;;;;;3.55;3.22;;;;;;;15.64;100.00;101047.78;5037721;28;20041;-85
2023/08/24 03:35:48;;;;;;;7.95;4.80;;;;;;;15.62;100.00;101054.88;5047517;28;20496;-88
2023/08/24 03:38:15;;;;;;;5.43;4.30;;;;;;;15.59;100.00;101065.53;5034739;28;20120;-83
2023/08/24 03:40:42;;;;;;;4.35;3.95;;;;;;;15.59;100.00;101064.63;5034562;28;20051;-86
2023/08/24 03:43:08;;;;;;;14.00;3.97;;;;;;;15.56;100.00;101065.56;5019670;28;20041;-89
2023/08/24 03:45:35;;;;;;;4.80;4.30;;;;;;;15.55;100.00;101063.81;5030617;28;20144;-83
2023/08/24 03:48:01;;;;;;;4.43;4.03;;;;;;;15.50;100.00;101056.03;5041840;28;20040;-83
2023/08/24 03:50:28;;;;;;;4.63;3.20;;;;;;;15.47;100.00;101053.44;5059720;28;20546;-85
2023/08/24 03:52:55;;;;;;;6.68;4.50;;;;;;;15.42;100.00;101047.41;5044324;28;20495;-83
2023/08/24 03:55:25;;;;;;;5.40;4.47;;;;;;;15.42;100.00;101055.31;5046016;28;20041;-84
2023/08/24 03:57:51;;;;;;;4.88;4.00;;;;;;;15.38;100.00;101065.09;5035206;28;20072;-87
2023/08/24 04:00:18;;;;;;;5.47;4.20;;;;;;;15.39;100.00;101055.41;5043678;28;20097;-85
2023/08/24 04:02:45;;;;;;;7.45;4.68;;;;;;;15.43;100.00;101061.47;5032108;28;20056;-84
2023/08/24 04:05:12;;;;;;;5.70;5.10;;;;;;;15.42;100.00;101065.88;5033131;28;20049;-86
2023/08/24 04:07:40;;;;;;;8.00;5.55;;;;;;;15.43;100.00;101074.69;5031149;28;20083;-84
2023/08/24 04:10:07;;;;;;;9.38;5.00;;;;;;;15.43;100.00;101083.44;5035748;28;20041;-85
2023/08/24 04:12:35;;;;;;;7.15;5.18;;;;;;;15.42;100.00;101086.13;5035058;28;20045;-85
2023/08/24 04:15:01;;;;;;;7.03;4.72;;;;;;;15.40;100.00;101094.06;5033631;28;20086;-86
2023/08/24 04:17:34;;;;;;;9.55;6.50;;;;;;;15.42;100.00;101094.88;5019195;28;20041;-86
2023/08/24 04:20:02;;;;;;;5.40;4.35;;;;;;;15.38;100.00;101088.84;5016972;28;20045;-85
2023/08/24 04:22:28;;;;;;;7.03;5.60;;;;;;;15.37;100.00;101087.09;5017947;28;20044;-87
2023/08/24 04:24:55;;;;;;;6.72;5.03;;;;;;;15.38;100.00;101083.56;5016969;28;20048;-87
2023/08/24 04:27:22;;;;;;;6.10;5.00;;;;;;;15.42;100.00;101086.13;5047678;28;20037;-85
2023/08/24 04:29:49;;;;;;;4.70;4.20;;;;;;;15.43;100.00;101087.88;5031145;28;20047;-88
2023/08/24 04:32:16;;;;;;;10.45;5.70;;;;;;;15.43;100.00;101098.41;5027594;28;20041;-86
2023/08/24 04:34:43;;;;;;;8.50;5.40;;;;;;;15.46;100.00;101099.22;5040607;28;20060;-86
2023/08/24 04:37:10;;;;;;;8.75;4.63;;;;;;;15.51;100.00;101096.47;5033317;28;20044;-85
2023/08/24 04:39:37;;;;;;;6.43;4.07;;;;;;;15.59;100.00;101097.19;5027781;28;20121;-86
2023/08/24 04:42:04;;;;;;;7.90;4.93;;;;;;;15.75;100.00;101094.16;5032627;28;20458;-85
2023/08/24 04:44:30;;;;;;;10.32;6.40;;;;;;;15.93;100.00;101082.34;5033036;28;20098;-87
2023/08/24 04:46:57;;;;;;;17.70;7.72;;;;;;;16.10;100.00;101076.63;5028806;28;20037;-85
2023/08/24 04:49:24;;;;;;;31.58;8.38;;;;;;;16.24;100.00;101086.84;5033754;28;20648;-89
2023/08/24 04:51:50;;;;;;;8.50;6.25;;;;;;;16.36;100.00;101097.97;5027844;28;20116;-86
2023/08/24 04:54:19;;;;;;;20.58;6.45;;;;;;;16.45;100.00;101106.56;5024461;28;20039;-85
2023/08/24 04:56:46;;;;;;;13.05;6.35;;;;;;;16.55;100.00;101102.78;5033700;28;20497;-85
2023/08/24 04:59:12;;;;;;;10.60;6.82;;;;;;;16.64;100.00;101109.59;5033228;28;20033;-90
2023/08/24 05:01:39;;;;;;;11.90;7.20;;;;;;;16.69;100.00;101105.06;5015697;28;20052;-85
2023/08/24 05:04:06;;;;;;;6.60;5.38;;;;;;;16.75;100.00;101096.06;5033313;28;20126;-86
2023/08/24 05:06:33;;;;;;;17.75;6.72;;;;;;;16.82;100.00;101087.06;5031692;28;20056;-86
2023/08/24 05:08:59;;;;;;;8.63;6.88;;;;;;;16.86;100.00;101088.72;5044612;28;20033;-87
2023/08/24 05:11:30;;;;;;;8.07;6.28;;;;;;;16.91;100.00;101096.53;5050908;28;20115;-92
2023/08/24 05:13:56;;;;;;;10.27;5.72;;;;;;;16.93;100.00;101094.72;5029731;28;20507;-87
2023/08/24 05:16:23;;;;;;;5.68;5.15;;;;;;;16.96;100.00;101090.22;5028534;28;20033;-86
2023/08/24 05:18:49;;;;;;;7.40;5.70;;;;;;;17.02;100.00;101075.94;5012809;28;20059;-85
2023/08/24 05:21:16;;;;;;;7.63;5.90;;;;;;;16.97;100.00;101067.28;5030777;28;20049;-85
2023/08/24 05:23:43;;;;;;;9.63;5.65;;;;;;;16.97;100.00;101069.94;5028665;28;20045;-86
2023/08/24 05:26:10;;;;;;;9.05;6.28;;;;;;;16.99;100.00;101074.25;5030554;28;20060;-85
2023/08/24 05:28:36;;;;;;;6.57;5.82;;;;;;;17.06;100.00;101074.94;5019486;28;20524;-85
2023/08/24 05:31:03;;;;;;;7.47;5.00;;;;;;;17.16;100.00;101083.50;5044032;28;20065;-91
2023/08/24 05:33:30;;;;;;;7.25;6.45;;;;;;;17.25;100.00;101072.63;5042405;28;20121;-86
2023/08/24 05:35:58;;;;;;;6.25;5.63;;;;;;;17.34;100.00;101084.72;5039698;28;20056;-87
2023/08/24 05:38:25;;;;;;;7.07;5.60;;;;;;;17.44;100.00;101093.22;5031337;28;20083;-87
2023/08/24 05:40:53;;;;;;;8.10;5.32;;;;;;;17.51;100.00;101090.34;5031992;28;20100;-88
2023/08/24 05:43:19;;;;;;;5.15;4.60;;;;;;;17.58;100.00;101095.47;5012976;28;20064;-87
2023/08/24 05:45:47;;;;;;;7.45;6.18;;;;;;;17.58;100.00;101095.47;5033762;28;20526;-86
2023/08/24 05:48:14;;;;;;;7.63;5.63;;;;;;;17.55;100.00;101103.47;5027279;28;20040;-84
2023/08/24 05:50:48;;;;;;;7.10;5.22;;;;;;;17.50;100.00;101101.84;5023712;28;20095;-84
2023/08/24 05:53:15;;;;;;;10.35;6.95;;;;;;;17.45;100.00;101113.50;5031191;28;20091;-86
2023/08/24 05:55:42;;;;;;;9.77;5.70;;;;;;;17.46;100.00;101096.72;5032806;28;20118;-85
2023/08/24 05:58:10;;;;;;;6.85;5.97;;;;;;;17.50;100.00;101088.63;5031049;28;20040;-84
2023/08/24 06:00:37;;;;;;;9.13;6.63;;;;;;;17.55;100.00;101082.31;5037291;28;20455;-84
2023/08/24 06:03:04;;;;;;;5.65;5.05;;;;;;;17.60;100.00;101069.78;5015675;28;20443;-87
2023/08/24 06:05:32;;;;;;;14.02;6.97;;;;;;;17.63;100.00;101061.78;5021786;28;20072;-84
2023/08/24 06:08:00;;;;;;;8.93;6.07;;;;;;;17.63;100.00;101054.69;5023811;28;20048;-85
2023/08/24 06:10:27;;;;;;;11.32;6.60;;;;;;;17.65;100.00;101046.69;5023121;28;20044;-85
2023/08/24 06:12:54;;;;;;;11.32;6.22;;;;;;;17.67;100.00;101044.88;5005766;28;20493;-85
2023/08/24 06:15:23;;;;;;;8.30;5.93;;;;;;;17.74;100.00;101050.81;5018983;28;20558;-86
2023/08/24 06:17:51;;;;;;;9.10;5.35;;;;;;;17.82;100.00;101046.13;5004711;28;20556;-89
2023/08/24 06:20:20;;;;;;;10.90;5.50;;;;;;;17.80;100.00;101042.69;5027297;28;20040;-88
2023/08/24 06:22:46;;;;;;;11.25;5.88;;;;;;;17.83;100.00;101047.88;5026418;28;20045;-87
2023/08/24 06:25:14;;;;;;;8.52;4.82;;;;;;;17.86;100.00;101043.34;5018713;28;20056;-84
2023/08/24 06:27:41;;;;;;;10.07;6.13;;;;;;;17.90;100.00;101040.59;5014518;28;20095;-89
2023/08/24 06:30:08;;;;;;;11.43;6.22;;;;;;;17.86;100.00;101030.09;5026843;28;20060;-84
2023/08/24 06:32:35;;;;;;;12.95;6.85;;;;;;;17.90;100.00;101027.34;5008410;28;20521;-89
2023/08/24 06:35:02;;;;;;;10.50;6.70;;;;;;;17.95;100.00;101031.63;5033591;28;20062;-87
2023/08/24 06:37:29;;;;;;;13.85;6.47;;;;;;;18.04;100.00;101027.78;5017956;28;21575;-85
2023/08/24 06:39:55;;;;;;;11.68;6.70;;;;;;;18.16;100.00;101026.47;5021266;28;20033;-84
2023/08/24 06:42:22;;;;;;;11.20;7.25;;;;;;;18.22;100.00;101020.97;5021353;28;20441;-85
2023/08/24 06:44:50;;;;;;;7.30;6.00;;;;;;;18.28;100.00;101017.28;5023348;28;20130;-86
2023/08/24 06:47:17;;;;;;;11.63;6.43;;;;;;;18.36;100.00;101017.84;5009286;28;20058;-84
2023/08/24 06:49:44;;;;;;;6.75;5.50;;;;;;;18.51;100.00;101022.59;5026187;28;20042;-85
2023/08/24 06:52:10;;;;;;;8.85;5.50;;;;;;;18.87;98.86;101015.13;5024800;28;20046;-88
2023/08/24 06:54:37;;;;;;;12.80;5.45;;;;;;;19.11;96.10;101018.66;5026647;28;20125;-85
2023/08/24 06:57:04;;;;;;;6.90;4.78;;;;;;;19.43;94.39;101021.84;5017944;28;20052;-85
2023/08/24 06:59:31;;;;;;;5.15;4.18;;;;;;;19.78;93.79;101022.19;5026389;28;20030;-85
2023/08/24 07:01:58;;;;;;;11.80;4.95;;;;;;;20.07;92.08;101023.63;5030136;28;20041;-85
2023/08/24 07:04:26;;;;;;;6.15;4.95;;;;;;;20.61;90.68;101028.38;5028495;28;20046;-88
2023/08/24 07:06:53;;;;;;;10.48;5.45;;;;;;;21.28;86.72;101023.56;5013366;28;20068;-87
2023/08/24 07:09:20;;;;;;;10.00;4.78;;;;;;;21.56;85.18;101027.56;5015603;28;20061;-84
2023/08/24 07:11:47;;;;;;;5.43;4.53;;;;;;;21.61;84.86;101028.22;5026952;28;20081;-85
2023/08/24 07:14:14;;;;;;;6.32;4.70;;;;;;;21.85;84.04;101038.56;5029132;28;20495;-83
2023/08/24 07:16:41;;;;;;;5.65;4.53;;;;;;;22.00;82.57;101037.81;5028904;28;20080;-84
2023/08/24 07:19:08;;;;;;;8.05;4.60;;;;;;;21.87;81.78;101026.91;5029645;28;20037;-85
2023/08/24 07:21:35;;;;;;;7.03;4.90;;;;;;;21.78;81.91;101024.69;5029104;28;20076;-84
2023/08/24 07:24:02;;;;;;;4.32;4.03;;;;;;;21.84;81.74;101027.06;5032214;28;20083;-84
2023/08/24 07:26:30;;;;;;;9.65;5.30;;;;;;;21.69;80.96;101019.84;5041744;28;20073;-85
2023/08/24 07:28:57;;;;;;;5.05;4.07;;;;;;;21.57;82.05;101024.81;5042763;28;20046;-92
2023/08/24 07:31:23;;;;;;;5.40;4.38;;;;;;;21.72;81.45;101017.00;5013638;28;20046;-83
2023/08/24 07:33:50;;;;;;;6.13;5.50;;;;;;;21.66;80.80;101006.69;5025566;28;20496;-83
2023/08/24 07:36:16;;;;;;;5.20;4.43;;;;;;;21.48;81.34;101010.16;5037473;28;20041;-84
2023/08/24 07:38:44;;;;;;;4.95;4.43;;;;;;;21.47;81.82;101003.09;5041238;28;20045;-84
2023/08/24 07:41:11;;;;;;;5.22;4.30;;;;;;;21.41;81.52;101002.53;5046852;28;20041;-84
2023/08/24 07:43:38;;;;;;;4.82;4.30;;;;;;;21.44;81.31;100997.88;5039024;28;20104;-84
2023/08/24 07:46:05;;;;;;;4.25;3.80;;;;;;;21.51;81.09;100997.59;5038700;28;20132;-84
2023/08/24 07:48:34;;;;;;;4.32;3.95;;;;;;;21.90;80.36;100983.25;5036964;28;20041;-84
2023/08/24 07:51:01;;;;;;;6.95;3.75;;;;;;;22.91;77.63;100982.34;5039726;28;20049;-81
2023/08/24 07:53:28;;;;;;;9.90;4.35;;;;;;;23.65;74.57;100981.75;5040774;28;20052;-84
2023/08/24 07:55:57;;;;;;;4.18;3.80;;;;;;;24.61;68.69;100987.56;5045248;28;20033;-84
2023/08/24 07:58:24;;;;;;;6.18;3.85;;;;;;;25.14;66.42;100978.94;5017203;28;20050;-84
2023/08/24 08:00:51;;;;;;;6.63;4.60;;;;;;;25.96;62.29;100970.78;5032838;28;20045;-84
2023/08/24 08:03:20;;;;;;;5.40;3.88;;;;;;;26.61;61.10;100974.34;5011192;28;20488;-86
2023/08/24 08:05:47;;;;;;;3.95;3.53;;;;;;;27.18;57.86;100968.44;5013972;28;20095;-85
2023/08/24 08:08:15;;;;;;;4.55;3.35;;;;;;;27.64;54.43;100968.63;5036363;28;20119;-85
2023/08/24 08:10:42;;;;;;;4.63;3.67;;;;;;;27.55;55.19;100965.69;5038083;28;20495;-84
2023/08/24 08:13:11;;;;;;;4.28;3.20;;;;;;;27.82;53.82;100969.06;5019576;28;20049;-83
2023/08/24 08:15:39;;;;;;;3.75;3.42;;;;;;;27.94;53.71;100959.19;5042271;28;20116;-85
2023/08/24 08:18:06;;;;;;;3.47;3.17;;;;;;;27.95;52.86;100966.28;5035050;28;20068;-83
2023/08/24 08:20:33;;;;;;;5.03;3.35;;;;;;;28.19;51.89;100961.72;5034113;28;20056;-92
2023/08/24 08:23:00;;;;;;;4.32;2.97;;;;;;;28.63;50.02;100964.53;5012290;28;20136;-85
2023/08/24 08:25:26;;;;;;;5.13;3.28;;;;;;;28.80;50.38;100965.88;5030455;28;20045;-87
2023/08/24 08:27:53;;;;;;;4.88;2.63;;;;;;;28.95;49.17;100961.06;5033444;28;20049;-85
2023/08/24 08:30:20;;;;;;;2.97;2.78;;;;;;;29.59;47.70;100967.50;5050083;28;20041;-83
2023/08/24 08:32:47;;;;;;;3.42;2.90;;;;;;;30.12;44.33;100961.19;5032974;28;20048;-84
2023/08/24 08:35:13;;;;;;;2.58;2.25;;;;;;;30.33;43.82;100971.94;5039724;28;20427;-85
2023/08/24 08:37:40;;;;;;;2.85;2.65;;;;;;;30.65;44.03;100978.22;5012623;28;20151;-86
2023/08/24 08:40:11;;;;;;;3.03;2.83;;;;;;;30.95;42.87;100977.31;5029331;28;20628;-85
2023/08/24 08:42:38;;;;;;;4.60;2.70;;;;;;;31.16;42.60;100973.69;5032495;28;20041;-85
2023/08/24 08:45:10;;;;;;;5.32;2.42;;;;;;;31.61;40.12;100975.84;5032486;28;20307;-85
2023/08/24 08:47:42;;;;;;;3.22;2.55;;;;;;;32.05;38.83;100974.53;5026721;28;20076;-85
2023/08/24 08:50:10;;;;;;;2.90;2.70;;;;;;;32.01;40.29;100976.66;5034285;28;20451;-82
2023/08/24 08:52:36;;;;;;;5.70;2.53;;;;;;;32.59;39.45;100974.75;5028683;28;20346;-85
2023/08/24 08:55:06;;;;;;;2.92;2.67;;;;;;;32.93;38.57;100966.91;5016165;28;20597;-84
2023/08/24 08:57:34;;;;;;;4.10;2.35;;;;;;;33.13;37.75;100964.06;5035640;28;20064;-83
2023/08/24 09:00:00;;;;;;;7.10;2.83;;;;;;;33.06;38.11;100965.66;5039209;28;20397;-83
2023/08/24 09:02:27;;;;;;;3.45;2.50;;;;;;;33.03;37.62;100963.28;5023012;28;20044;-91
2023/08/24 09:04:53;;;;;;;2.75;2.55;;;;;;;32.38;38.55;100959.59;5041052;28;20048;-84
2023/08/24 09:07:20;;;;;;;4.78;2.78;;;;;;;32.47;37.85;100963.25;5018681;28;20048;-88
2023/08/24 09:09:47;;;;;;;4.53;2.60;;;;;;;32.59;38.19;100953.94;5036290;28;20041;-84
2023/08/24 09:12:13;;;;;;;3.15;2.38;;;;;;;32.92;38.10;100962.47;5028368;28;20117;-83
2023/08/24 09:14:41;;;;;;;2.33;2.13;;;;;;;33.68;36.79;100951.34;5032858;28;20132;-87
2023/08/24 09:17:08;;;;;;;2.45;2.25;;;;;;;34.35;35.76;100948.06;5042427;28;20487;-82
2023/08/24 09:19:38;;;;;;;2.75;2.05;;;;;;;34.91;34.26;100937.56;5035115;28;20047;-83
2023/08/24 09:22:05;;;;;;;5.07;2.30;;;;;;;35.25;32.84;100944.75;5024085;28;20041;-84
2023/08/24 09:24:38;;;;;;;2.78;1.90;;;;;;;35.41;33.20;100950.22;5016858;28;20041;-83
2023/08/24 09:27:19;;;;;;;2.65;2.42;;;;;;;35.15;33.23;100939.47;5030340;28;20132;-83
2023/08/24 09:29:53;;;;;;;2.97;2.58;;;;;;;34.71;34.02;100928.81;5044603;28;20139;-86
2023/08/24 09:32:31;;;;;;;4.05;2.92;;;;;;;34.70;34.06;100917.06;5036698;28;20057;-84
2023/08/24 09:35:05;;;;;;;3.50;2.47;;;;;;;35.10;33.24;100920.09;5024913;28;20076;-85
2023/08/24 09:37:36;;;;;;;2.83;2.53;;;;;;;35.53;32.41;100925.41;5012346;28;20095;-83
2023/08/24 09:40:08;;;;;;;2.53;2.33;;;;;;;35.10;32.22;100929.09;5015201;28;20069;-83
2023/08/24 09:42:43;;;;;;;3.35;3.10;;;;;;;35.56;31.76;100923.16;5006602;28;20042;-85
2023/08/24 09:45:15;;;;;;;3.90;2.50;;;;;;;36.13;31.07;100915.94;4998561;28;20046;-83
2023/08/24 09:47:53;;;;;;;3.97;2.28;;;;;;;35.65;31.59;100915.84;5002732;28;20059;-83
2023/08/24 09:50:19;;;;;;;8.55;3.97;;;;;;;35.63;32.14;100912.44;5024450;28;20128;-84
2023/08/24 09:52:49;;;;;;;4.30;2.05;;;;;;;36.36;30.57;100893.38;5015113;28;20560;-83
2023/08/24 09:55:22;;;;;;;4.53;2.08;;;;;;;37.14;29.90;100896.97;5021588;28;20052;-85
2023/08/24 09:57:55;;;;;;;3.38;2.22;;;;;;;37.85;29.18;100880.31;5027731;28;20449;-83
2023/08/24 10:00:24;;;;;;;2.95;2.58;;;;;;;37.93;29.00;100876.63;5014188;28;20091;-84
2023/08/24 10:02:53;;;;;;;3.78;2.10;;;;;;;38.41;27.88;100864.44;5006633;28;20095;-83
2023/08/24 10:05:25;;;;;;;2.22;2.00;;;;;;;38.44;27.98;100864.91;5027891;28;20124;-87
2023/08/24 10:07:54;;;;;;;5.00;2.17;;;;;;;38.73;27.37;100857.66;5020227;28;20094;-84
2023/08/24 10:10:25;;;;;;;2.70;2.05;;;;;;;38.49;27.48;100861.59;5016396;28;20378;-86
2023/08/24 10:12:58;;;;;;;2.83;1.90;;;;;;;38.48;27.40;100858.00;4998747;28;20063;-83
2023/08/24 10:15:25;;;;;;;2.42;2.25;;;;;;;38.92;26.63;100858.03;5017845;28;20048;-82
2023/08/24 10:17:52;;;;;;;7.15;2.42;;;;;;;38.87;26.54;100862.22;4998119;28;20046;-83
2023/08/24 10:20:21;;;;;;;3.75;2.78;;;;;;;38.17;26.54;100855.50;5017524;28;20103;-86
2023/08/24 10:22:48;;;;;;;2.58;1.95;;;;;;;37.79;26.65;100847.44;5015050;28;20057;-84
2023/08/24 10:25:17;;;;;;;3.47;2.78;;;;;;;37.94;26.41;100836.47;5012041;28;20045;-83
2023/08/24 10:27:45;;;;;;;2.58;2.15;;;;;;;38.75;25.98;100836.44;5015337;28;20396;-85
2023/08/24 10:30:14;;;;;;;4.65;2.58;;;;;;;39.11;25.37;100829.97;5005633;28;20052;-83
2023/08/24 10:32:48;;;;;;;2.78;2.47;;;;;;;39.39;24.06;100831.94;5013275;28;20049;-83
2023/08/24 10:35:18;;;;;;;7.20;2.28;;;;;;;38.95;25.95;100830.28;5043254;28;20079;-83
2023/08/24 10:37:59;;;;;;;2.70;2.05;;;;;;;38.63;24.01;100832.47;5042063;28;20041;-83
2023/08/24 10:40:39;;;;;;;2.92;1.70;;;;;;;37.09;26.27;100825.72;5024195;28;20709;-83
2023/08/24 10:43:07;;;;;;;2.38;2.03;;;;;;;37.12;27.31;100824.50;5034364;28;20057;-83
2023/08/24 10:46:03;;;;;;;2.08;1.98;;;;;;;37.49;25.76;100836.47;5022172;28;20477;-84
2023/08/24 10:48:42;;;;;;;3.40;2.13;;;;;;;37.75;25.93;100830.53;5034066;28;20061;-81
2023/08/24 10:51:16;;;;;;;2.40;2.20;;;;;;;37.68;26.31;100832.31;5051653;28;20119;-83
2023/08/24 10:53:46;;;;;;;2.22;2.03;;;;;;;37.59;26.30;100820.66;5051707;28;20472;-83
2023/08/24 10:56:15;;;;;;;6.18;1.80;;;;;;;37.77;26.34;100819.41;5042694;28;20095;-84
2023/08/24 10:58:43;;;;;;;1.90;1.80;;;;;;;37.36;27.17;100829.75;5050951;28;20052;-83
2023/08/24 11:01:19;;;;;;;2.10;2.00;;;;;;;37.60;27.19;100826.97;5017310;28;20042;-82
2023/08/24 11:03:56;;;;;;;3.75;1.92;;;;;;;36.70;27.47;100834.88;5028259;28;20045;-86
2023/08/24 11:06:25;;;;;;;3.10;1.75;;;;;;;36.14;28.16;100832.28;5029251;28;20047;-85
2023/08/24 11:09:13;;;;;;;10.35;2.13;;;;;;;35.79;27.27;100824.41;5036421;28;20400;-85
2023/08/24 11:11:41;;;;;;;5.32;1.70;;;;;;;35.55;27.79;100817.16;5051592;28;20040;-92
2023/08/24 11:14:15;;;;;;;2.80;1.83;;;;;;;35.92;27.53;100827.44;5040622;28;20096;-85
2023/08/24 11:16:47;;;;;;;3.25;2.10;;;;;;;36.20;27.99;100823.41;5035748;28;20033;-84
2023/08/24 11:19:17;;;;;;;5.30;2.50;;;;;;;36.18;29.11;100820.88;5042085;28;20404;-86
2023/08/24 11:21:46;;;;;;;1.77;1.52;;;;;;;36.44;27.03;100814.28;5036006;28;20426;-83
2023/08/24 11:24:17;;;;;;;2.50;1.73;;;;;;;36.41;25.57;100804.59;5039739;28;20134;-83
2023/08/24 11:26:47;;;;;;;1.58;1.48;;;;;;;36.79;25.68;100811.13;5033248;28;20049;-83